sensor_id;sensor_type;location;lat;lon;timestamp;P1;durP1;ratioP1;P2;durP2;ratioP2
21507;SDS011;10915;54.352;9.074;2023-10-08T00:02:03;3.83;;;1.30;;
21507;SDS011;10915;54.352;9.074;2023-10-08T00:04:31;4.40;;;1.43;;
21507;SDS011;10915;54.352;9.074;2023-10-08T00:07:02;6.07;;;1.43;;
21507;SDS011;10915;54.352;9.074;2023-10-08T00:09:32;5.00;;;1.43;;
21507;SDS011;10915;54.352;9.074;2023-10-08T00:12:01;5.13;;;1.40;;
21507;SDS011;10915;54.352;9.074;2023-10-08T00:14:30;10.13;;;1.30;;
21507;SDS011;10915;54.352;9.074;2023-10-08T00:17:08;4.63;;;1.27;;
21507;SDS011;10915;54.352;9.074;2023-10-08T00:19:35;6.83;;;1.90;;
21507;SDS011;10915;54.352;9.074;2023-10-08T00:22:12;5.57;;;1.60;;
21507;SDS011;10915;54.352;9.074;2023-10-08T00:24:39;4.13;;;1.50;;
21507;SDS011;10915;54.352;9.074;2023-10-08T00:27:07;3.43;;;1.40;;
21507;SDS011;10915;54.352;9.074;2023-10-08T00:29:33;7.63;;;1.80;;
21507;SDS011;10915;54.352;9.074;2023-10-08T00:31:59;6.20;;;1.40;;
21507;SDS011;10915;54.352;9.074;2023-10-08T00:34:36;4.90;;;1.33;;
21507;SDS011;10915;54.352;9.074;2023-10-08T00:37:06;6.83;;;1.30;;
21507;SDS011;10915;54.352;9.074;2023-10-08T00:39:34;5.03;;;1.20;;
21507;SDS011;10915;54.352;9.074;2023-10-08T00:42:04;3.33;;;1.50;;
21507;SDS011;10915;54.352;9.074;2023-10-08T00:44:32;2.20;;;0.77;;
21507;SDS011;10915;54.352;9.074;2023-10-08T00:47:03;4.27;;;1.13;;
21507;SDS011;10915;54.352;9.074;2023-10-08T00:49:30;4.77;;;1.40;;
21507;SDS011;10915;54.352;9.074;2023-10-08T00:52:06;3.67;;;1.03;;
21507;SDS011;10915;54.352;9.074;2023-10-08T00:54:35;2.47;;;1.10;;
21507;SDS011;10915;54.352;9.074;2023-10-08T00:57:11;3.13;;;1.20;;
21507;SDS011;10915;54.352;9.074;2023-10-08T00:59:49;3.97;;;1.47;;
21507;SDS011;10915;54.352;9.074;2023-10-08T01:04:46;8.13;;;1.97;;
21507;SDS011;10915;54.352;9.074;2023-10-08T01:07:12;3.67;;;1.20;;
21507;SDS011;10915;54.352;9.074;2023-10-08T01:09:40;4.03;;;1.60;;
21507;SDS011;10915;54.352;9.074;2023-10-08T01:12:19;5.00;;;1.30;;
21507;SDS011;10915;54.352;9.074;2023-10-08T01:14:58;5.43;;;1.20;;
21507;SDS011;10915;54.352;9.074;2023-10-08T01:17:48;6.93;;;1.17;;
21507;SDS011;10915;54.352;9.074;2023-10-08T01:20:37;6.50;;;1.53;;
21507;SDS011;10915;54.352;9.074;2023-10-08T01:23:04;4.07;;;1.20;;
21507;SDS011;10915;54.352;9.074;2023-10-08T01:25:38;5.87;;;1.33;;
21507;SDS011;10915;54.352;9.074;2023-10-08T01:28:08;4.83;;;1.27;;
21507;SDS011;10915;54.352;9.074;2023-10-08T01:30:40;4.30;;;1.40;;
21507;SDS011;10915;54.352;9.074;2023-10-08T01:33:10;5.77;;;1.30;;
21507;SDS011;10915;54.352;9.074;2023-10-08T01:35:42;5.73;;;1.33;;
21507;SDS011;10915;54.352;9.074;2023-10-08T01:38:08;2.70;;;1.20;;
21507;SDS011;10915;54.352;9.074;2023-10-08T01:40:38;3.83;;;1.13;;
21507;SDS011;10915;54.352;9.074;2023-10-08T01:43:05;3.40;;;1.00;;
21507;SDS011;10915;54.352;9.074;2023-10-08T01:45:30;3.20;;;0.97;;
21507;SDS011;10915;54.352;9.074;2023-10-08T01:47:57;2.77;;;1.10;;
21507;SDS011;10915;54.352;9.074;2023-10-08T01:50:23;5.57;;;1.67;;
21507;SDS011;10915;54.352;9.074;2023-10-08T01:52:54;2.93;;;1.27;;
21507;SDS011;10915;54.352;9.074;2023-10-08T01:55:20;4.33;;;1.40;;
21507;SDS011;10915;54.352;9.074;2023-10-08T01:57:47;8.13;;;1.73;;
21507;SDS011;10915;54.352;9.074;2023-10-08T02:00:16;6.13;;;1.40;;
21507;SDS011;10915;54.352;9.074;2023-10-08T02:02:44;3.37;;;1.20;;
21507;SDS011;10915;54.352;9.074;2023-10-08T02:05:18;3.63;;;1.30;;
21507;SDS011;10915;54.352;9.074;2023-10-08T02:07:46;8.67;;;1.50;;
21507;SDS011;10915;54.352;9.074;2023-10-08T02:10:11;4.60;;;1.23;;
21507;SDS011;10915;54.352;9.074;2023-10-08T02:12:39;5.37;;;1.40;;
21507;SDS011;10915;54.352;9.074;2023-10-08T02:15:06;4.00;;;1.50;;
21507;SDS011;10915;54.352;9.074;2023-10-08T02:17:32;5.30;;;1.27;;
21507;SDS011;10915;54.352;9.074;2023-10-08T02:19:59;4.93;;;1.03;;
21507;SDS011;10915;54.352;9.074;2023-10-08T02:22:24;4.27;;;1.60;;
21507;SDS011;10915;54.352;9.074;2023-10-08T02:24:50;4.83;;;1.50;;
21507;SDS011;10915;54.352;9.074;2023-10-08T02:27:18;4.03;;;1.43;;
21507;SDS011;10915;54.352;9.074;2023-10-08T02:29:44;4.00;;;1.70;;
21507;SDS011;10915;54.352;9.074;2023-10-08T02:32:10;9.13;;;1.83;;
21507;SDS011;10915;54.352;9.074;2023-10-08T02:34:35;3.63;;;1.10;;
21507;SDS011;10915;54.352;9.074;2023-10-08T02:37:01;3.90;;;1.50;;
21507;SDS011;10915;54.352;9.074;2023-10-08T02:39:28;4.70;;;1.50;;
21507;SDS011;10915;54.352;9.074;2023-10-08T02:41:57;5.03;;;1.30;;
21507;SDS011;10915;54.352;9.074;2023-10-08T02:44:25;4.77;;;1.57;;
21507;SDS011;10915;54.352;9.074;2023-10-08T02:46:52;5.10;;;1.40;;
21507;SDS011;10915;54.352;9.074;2023-10-08T02:49:21;2.97;;;1.27;;
21507;SDS011;10915;54.352;9.074;2023-10-08T02:51:50;4.67;;;1.70;;
21507;SDS011;10915;54.352;9.074;2023-10-08T02:54:18;5.13;;;1.40;;
21507;SDS011;10915;54.352;9.074;2023-10-08T02:56:46;3.13;;;1.37;;
21507;SDS011;10915;54.352;9.074;2023-10-08T02:59:23;4.33;;;1.20;;
21507;SDS011;10915;54.352;9.074;2023-10-08T03:01:53;5.43;;;1.73;;
21507;SDS011;10915;54.352;9.074;2023-10-08T03:04:22;6.23;;;1.90;;
21507;SDS011;10915;54.352;9.074;2023-10-08T03:06:49;4.37;;;1.07;;
21507;SDS011;10915;54.352;9.074;2023-10-08T03:09:19;4.17;;;1.37;;
21507;SDS011;10915;54.352;9.074;2023-10-08T03:11:48;3.53;;;1.10;;
21507;SDS011;10915;54.352;9.074;2023-10-08T03:14:18;4.00;;;1.50;;
21507;SDS011;10915;54.352;9.074;2023-10-08T03:16:48;6.97;;;1.60;;
21507;SDS011;10915;54.352;9.074;2023-10-08T03:19:14;4.03;;;1.20;;
21507;SDS011;10915;54.352;9.074;2023-10-08T03:21:40;5.67;;;1.70;;
21507;SDS011;10915;54.352;9.074;2023-10-08T03:24:05;3.77;;;1.17;;
21507;SDS011;10915;54.352;9.074;2023-10-08T03:26:38;5.67;;;1.47;;
21507;SDS011;10915;54.352;9.074;2023-10-08T03:29:05;4.33;;;1.47;;
21507;SDS011;10915;54.352;9.074;2023-10-08T03:31:40;5.73;;;1.47;;
21507;SDS011;10915;54.352;9.074;2023-10-08T03:34:12;5.83;;;1.60;;
21507;SDS011;10915;54.352;9.074;2023-10-08T03:36:40;5.27;;;1.50;;
21507;SDS011;10915;54.352;9.074;2023-10-08T03:39:13;4.00;;;1.23;;
21507;SDS011;10915;54.352;9.074;2023-10-08T03:41:39;8.23;;;1.70;;
21507;SDS011;10915;54.352;9.074;2023-10-08T03:44:06;3.30;;;1.30;;
21507;SDS011;10915;54.352;9.074;2023-10-08T03:46:38;4.43;;;1.53;;
21507;SDS011;10915;54.352;9.074;2023-10-08T03:49:06;6.17;;;1.70;;
21507;SDS011;10915;54.352;9.074;2023-10-08T03:51:39;2.47;;;1.07;;
21507;SDS011;10915;54.352;9.074;2023-10-08T03:54:07;5.83;;;1.50;;
21507;SDS011;10915;54.352;9.074;2023-10-08T03:56:43;4.30;;;1.40;;
21507;SDS011;10915;54.352;9.074;2023-10-08T03:59:14;3.63;;;1.27;;
21507;SDS011;10915;54.352;9.074;2023-10-08T04:02:01;5.67;;;1.67;;
21507;SDS011;10915;54.352;9.074;2023-10-08T04:04:48;6.27;;;1.37;;
21507;SDS011;10915;54.352;9.074;2023-10-08T04:07:15;4.47;;;1.67;;
21507;SDS011;10915;54.352;9.074;2023-10-08T04:10:04;4.43;;;1.13;;
21507;SDS011;10915;54.352;9.074;2023-10-08T04:12:34;5.70;;;1.57;;
21507;SDS011;10915;54.352;9.074;2023-10-08T04:15:03;5.70;;;1.30;;
21507;SDS011;10915;54.352;9.074;2023-10-08T04:17:32;3.67;;;1.30;;
21507;SDS011;10915;54.352;9.074;2023-10-08T04:20:08;5.23;;;1.30;;
21507;SDS011;10915;54.352;9.074;2023-10-08T04:22:54;3.50;;;1.10;;
21507;SDS011;10915;54.352;9.074;2023-10-08T04:25:20;4.10;;;1.30;;
21507;SDS011;10915;54.352;9.074;2023-10-08T04:27:46;4.40;;;1.30;;
21507;SDS011;10915;54.352;9.074;2023-10-08T04:30:15;4.13;;;1.60;;
21507;SDS011;10915;54.352;9.074;2023-10-08T04:32:41;4.50;;;1.53;;
21507;SDS011;10915;54.352;9.074;2023-10-08T04:35:07;4.50;;;1.53;;
21507;SDS011;10915;54.352;9.074;2023-10-08T04:37:52;3.70;;;1.23;;
21507;SDS011;10915;54.352;9.074;2023-10-08T05:19:58;6.83;;;1.77;;
21507;SDS011;10915;54.352;9.074;2023-10-08T05:22:58;8.23;;;1.97;;
21507;SDS011;10915;54.352;9.074;2023-10-08T05:25:56;7.37;;;1.57;;
21507;SDS011;10915;54.352;9.074;2023-10-08T05:28:30;9.10;;;2.30;;
21507;SDS011;10915;54.352;9.074;2023-10-08T06:00:52;8.60;;;2.13;;
21507;SDS011;10915;54.352;9.074;2023-10-08T06:07:45;6.27;;;1.90;;
21507;SDS011;10915;54.352;9.074;2023-10-08T06:10:27;7.70;;;2.00;;
21507;SDS011;10915;54.352;9.074;2023-10-08T06:15:55;9.10;;;1.70;;
21507;SDS011;10915;54.352;9.074;2023-10-08T06:19:23;9.90;;;1.70;;
21507;SDS011;10915;54.352;9.074;2023-10-08T06:35:22;7.43;;;2.10;;
21507;SDS011;10915;54.352;9.074;2023-10-08T06:37:50;5.00;;;1.70;;
21507;SDS011;10915;54.352;9.074;2023-10-08T06:43:19;6.67;;;1.93;;
21507;SDS011;10915;54.352;9.074;2023-10-08T06:46:21;8.63;;;2.03;;
21507;SDS011;10915;54.352;9.074;2023-10-08T06:48:57;7.13;;;2.20;;
21507;SDS011;10915;54.352;9.074;2023-10-08T06:51:41;6.43;;;2.03;;
21507;SDS011;10915;54.352;9.074;2023-10-08T06:54:33;9.00;;;1.70;;
21507;SDS011;10915;54.352;9.074;2023-10-08T06:57:01;7.47;;;2.23;;
21507;SDS011;10915;54.352;9.074;2023-10-08T06:59:27;5.77;;;1.63;;
21507;SDS011;10915;54.352;9.074;2023-10-08T07:01:56;7.10;;;1.93;;
21507;SDS011;10915;54.352;9.074;2023-10-08T07:11:30;2.93;;;1.40;;
21507;SDS011;10915;54.352;9.074;2023-10-08T07:14:20;4.03;;;1.47;;
21507;SDS011;10915;54.352;9.074;2023-10-08T07:17:02;5.90;;;2.00;;
21507;SDS011;10915;54.352;9.074;2023-10-08T07:19:36;4.90;;;1.87;;
21507;SDS011;10915;54.352;9.074;2023-10-08T07:22:18;5.07;;;1.53;;
21507;SDS011;10915;54.352;9.074;2023-10-08T07:24:56;5.63;;;1.83;;
21507;SDS011;10915;54.352;9.074;2023-10-08T07:31:15;3.97;;;1.47;;
21507;SDS011;10915;54.352;9.074;2023-10-08T07:34:03;4.73;;;1.50;;
21507;SDS011;10915;54.352;9.074;2023-10-08T07:52:39;5.00;;;1.73;;
21507;SDS011;10915;54.352;9.074;2023-10-08T07:58:19;4.80;;;1.53;;
21507;SDS011;10915;54.352;9.074;2023-10-08T08:01:25;7.43;;;1.50;;
21507;SDS011;10915;54.352;9.074;2023-10-08T08:07:26;4.90;;;1.63;;
21507;SDS011;10915;54.352;9.074;2023-10-08T08:13:59;5.33;;;1.20;;
21507;SDS011;10915;54.352;9.074;2023-10-08T08:17:26;5.57;;;1.47;;
21507;SDS011;10915;54.352;9.074;2023-10-08T08:20:36;6.77;;;1.77;;
21507;SDS011;10915;54.352;9.074;2023-10-08T08:23:34;3.10;;;1.20;;
21507;SDS011;10915;54.352;9.074;2023-10-08T08:43:03;4.37;;;1.37;;
21507;SDS011;10915;54.352;9.074;2023-10-08T08:49:51;4.10;;;1.57;;
21507;SDS011;10915;54.352;9.074;2023-10-08T08:52:25;8.23;;;1.30;;
21507;SDS011;10915;54.352;9.074;2023-10-08T08:57:51;4.10;;;1.03;;
21507;SDS011;10915;54.352;9.074;2023-10-08T09:01:09;4.33;;;1.50;;
21507;SDS011;10915;54.352;9.074;2023-10-08T09:08:02;5.07;;;1.87;;
21507;SDS011;10915;54.352;9.074;2023-10-08T09:10:31;2.67;;;1.07;;
21507;SDS011;10915;54.352;9.074;2023-10-08T09:13:02;3.90;;;1.37;;
21507;SDS011;10915;54.352;9.074;2023-10-08T09:15:29;3.83;;;1.10;;
21507;SDS011;10915;54.352;9.074;2023-10-08T09:17:55;7.03;;;1.37;;
21507;SDS011;10915;54.352;9.074;2023-10-08T09:20:21;3.13;;;1.17;;
21507;SDS011;10915;54.352;9.074;2023-10-08T09:25:36;4.57;;;1.20;;
21507;SDS011;10915;54.352;9.074;2023-10-08T09:28:02;3.60;;;1.10;;
21507;SDS011;10915;54.352;9.074;2023-10-08T09:30:32;3.17;;;0.80;;
21507;SDS011;10915;54.352;9.074;2023-10-08T09:33:08;2.37;;;1.20;;
21507;SDS011;10915;54.352;9.074;2023-10-08T09:35:35;4.30;;;1.03;;
21507;SDS011;10915;54.352;9.074;2023-10-08T09:38:05;1.83;;;0.87;;
21507;SDS011;10915;54.352;9.074;2023-10-08T09:40:34;4.27;;;1.27;;
21507;SDS011;10915;54.352;9.074;2023-10-08T09:43:05;4.60;;;1.20;;
21507;SDS011;10915;54.352;9.074;2023-10-08T09:45:33;2.27;;;0.97;;
21507;SDS011;10915;54.352;9.074;2023-10-08T09:48:00;2.37;;;1.00;;
21507;SDS011;10915;54.352;9.074;2023-10-08T09:50:32;3.33;;;1.00;;
21507;SDS011;10915;54.352;9.074;2023-10-08T09:53:08;3.23;;;1.13;;
21507;SDS011;10915;54.352;9.074;2023-10-08T09:55:44;5.30;;;1.00;;
21507;SDS011;10915;54.352;9.074;2023-10-08T09:58:20;2.27;;;0.97;;
21507;SDS011;10915;54.352;9.074;2023-10-08T10:00:47;3.40;;;1.17;;
21507;SDS011;10915;54.352;9.074;2023-10-08T10:03:14;1.00;;;0.80;;
21507;SDS011;10915;54.352;9.074;2023-10-08T10:05:43;3.07;;;1.00;;
21507;SDS011;10915;54.352;9.074;2023-10-08T10:08:10;2.93;;;1.23;;
21507;SDS011;10915;54.352;9.074;2023-10-08T10:10:36;3.80;;;1.10;;
21507;SDS011;10915;54.352;9.074;2023-10-08T10:13:04;3.47;;;0.90;;
21507;SDS011;10915;54.352;9.074;2023-10-08T10:15:33;3.83;;;0.87;;
21507;SDS011;10915;54.352;9.074;2023-10-08T10:18:16;1.37;;;0.70;;
21507;SDS011;10915;54.352;9.074;2023-10-08T10:20:44;1.63;;;0.80;;
21507;SDS011;10915;54.352;9.074;2023-10-08T10:23:45;2.30;;;0.87;;
21507;SDS011;10915;54.352;9.074;2023-10-08T10:31:32;1.30;;;0.53;;
21507;SDS011;10915;54.352;9.074;2023-10-08T10:34:07;2.63;;;0.83;;
21507;SDS011;10915;54.352;9.074;2023-10-08T10:36:34;2.70;;;1.00;;
21507;SDS011;10915;54.352;9.074;2023-10-08T10:39:00;2.73;;;0.93;;
21507;SDS011;10915;54.352;9.074;2023-10-08T10:41:40;3.50;;;1.17;;
21507;SDS011;10915;54.352;9.074;2023-10-08T10:44:13;2.33;;;1.10;;
21507;SDS011;10915;54.352;9.074;2023-10-08T10:46:45;1.80;;;0.70;;
21507;SDS011;10915;54.352;9.074;2023-10-08T10:49:25;1.53;;;0.80;;
21507;SDS011;10915;54.352;9.074;2023-10-08T10:52:01;3.10;;;1.00;;
21507;SDS011;10915;54.352;9.074;2023-10-08T10:54:30;1.80;;;0.70;;
21507;SDS011;10915;54.352;9.074;2023-10-08T10:57:01;1.00;;;0.60;;
21507;SDS011;10915;54.352;9.074;2023-10-08T10:59:31;1.00;;;0.60;;
21507;SDS011;10915;54.352;9.074;2023-10-08T11:02:03;3.17;;;1.10;;
21507;SDS011;10915;54.352;9.074;2023-10-08T11:04:33;3.27;;;1.53;;
21507;SDS011;10915;54.352;9.074;2023-10-08T11:07:12;4.57;;;1.20;;
21507;SDS011;10915;54.352;9.074;2023-10-08T11:09:43;2.50;;;1.00;;
21507;SDS011;10915;54.352;9.074;2023-10-08T11:12:09;2.37;;;0.80;;
21507;SDS011;10915;54.352;9.074;2023-10-08T11:14:37;4.80;;;1.33;;
21507;SDS011;10915;54.352;9.074;2023-10-08T11:17:32;2.17;;;1.00;;
21507;SDS011;10915;54.352;9.074;2023-10-08T11:19:57;3.43;;;1.10;;
21507;SDS011;10915;54.352;9.074;2023-10-08T11:22:22;2.97;;;1.27;;
21507;SDS011;10915;54.352;9.074;2023-10-08T11:25:19;3.23;;;1.13;;
21507;SDS011;10915;54.352;9.074;2023-10-08T11:27:51;3.33;;;1.30;;
21507;SDS011;10915;54.352;9.074;2023-10-08T11:30:23;2.70;;;1.27;;
21507;SDS011;10915;54.352;9.074;2023-10-08T11:32:49;5.17;;;1.07;;
21507;SDS011;10915;54.352;9.074;2023-10-08T11:35:15;3.87;;;1.07;;
21507;SDS011;10915;54.352;9.074;2023-10-08T11:37:44;3.27;;;1.37;;
21507;SDS011;10915;54.352;9.074;2023-10-08T11:40:23;1.20;;;0.73;;
21507;SDS011;10915;54.352;9.074;2023-10-08T11:43:13;2.20;;;0.93;;
21507;SDS011;10915;54.352;9.074;2023-10-08T11:45:41;2.27;;;1.00;;
21507;SDS011;10915;54.352;9.074;2023-10-08T11:48:13;2.03;;;1.10;;
21507;SDS011;10915;54.352;9.074;2023-10-08T11:50:42;3.60;;;1.13;;
21507;SDS011;10915;54.352;9.074;2023-10-08T11:53:08;3.80;;;1.30;;
21507;SDS011;10915;54.352;9.074;2023-10-08T11:55:36;1.73;;;1.00;;
21507;SDS011;10915;54.352;9.074;2023-10-08T11:58:04;2.77;;;1.20;;
21507;SDS011;10915;54.352;9.074;2023-10-08T12:00:39;4.27;;;1.20;;
21507;SDS011;10915;54.352;9.074;2023-10-08T12:03:12;4.20;;;1.20;;
21507;SDS011;10915;54.352;9.074;2023-10-08T12:05:43;2.03;;;0.80;;
21507;SDS011;10915;54.352;9.074;2023-10-08T12:08:12;3.43;;;1.10;;
21507;SDS011;10915;54.352;9.074;2023-10-08T12:10:43;2.50;;;1.40;;
21507;SDS011;10915;54.352;9.074;2023-10-08T12:13:08;3.37;;;1.33;;
21507;SDS011;10915;54.352;9.074;2023-10-08T12:15:35;2.27;;;1.00;;
21507;SDS011;10915;54.352;9.074;2023-10-08T12:18:04;2.30;;;0.80;;
21507;SDS011;10915;54.352;9.074;2023-10-08T12:20:37;1.87;;;0.90;;
21507;SDS011;10915;54.352;9.074;2023-10-08T12:23:06;3.27;;;1.03;;
21507;SDS011;10915;54.352;9.074;2023-10-08T12:25:35;2.83;;;0.87;;
21507;SDS011;10915;54.352;9.074;2023-10-08T12:28:02;2.03;;;0.83;;
21507;SDS011;10915;54.352;9.074;2023-10-08T12:30:29;1.20;;;0.70;;
21507;SDS011;10915;54.352;9.074;2023-10-08T12:32:56;2.37;;;0.80;;
21507;SDS011;10915;54.352;9.074;2023-10-08T12:35:22;2.23;;;0.77;;
21507;SDS011;10915;54.352;9.074;2023-10-08T12:37:49;4.17;;;0.80;;
21507;SDS011;10915;54.352;9.074;2023-10-08T12:40:15;1.80;;;0.80;;
21507;SDS011;10915;54.352;9.074;2023-10-08T12:42:52;4.97;;;1.00;;
21507;SDS011;10915;54.352;9.074;2023-10-08T12:45:19;1.30;;;0.53;;
21507;SDS011;10915;54.352;9.074;2023-10-08T12:47:51;0.97;;;0.77;;
21507;SDS011;10915;54.352;9.074;2023-10-08T12:50:18;3.83;;;0.80;;
21507;SDS011;10915;54.352;9.074;2023-10-08T12:53:03;2.37;;;0.70;;
21507;SDS011;10915;54.352;9.074;2023-10-08T12:55:29;3.23;;;0.70;;
21507;SDS011;10915;54.352;9.074;2023-10-08T12:57:55;1.73;;;0.63;;
21507;SDS011;10915;54.352;9.074;2023-10-08T13:00:30;1.93;;;0.90;;
21507;SDS011;10915;54.352;9.074;2023-10-08T13:02:57;1.20;;;0.70;;
21507;SDS011;10915;54.352;9.074;2023-10-08T13:05:22;4.17;;;1.00;;
21507;SDS011;10915;54.352;9.074;2023-10-08T13:07:55;0.90;;;0.60;;
21507;SDS011;10915;54.352;9.074;2023-10-08T13:10:22;1.43;;;0.60;;
21507;SDS011;10915;54.352;9.074;2023-10-08T13:12:48;2.10;;;0.80;;
21507;SDS011;10915;54.352;9.074;2023-10-08T13:15:14;1.37;;;0.70;;
21507;SDS011;10915;54.352;9.074;2023-10-08T13:17:40;1.93;;;0.80;;
21507;SDS011;10915;54.352;9.074;2023-10-08T13:20:08;2.07;;;0.90;;
21507;SDS011;10915;54.352;9.074;2023-10-08T13:22:37;2.10;;;0.60;;
21507;SDS011;10915;54.352;9.074;2023-10-08T13:25:03;0.87;;;0.63;;
21507;SDS011;10915;54.352;9.074;2023-10-08T13:27:30;2.13;;;0.80;;
21507;SDS011;10915;54.352;9.074;2023-10-08T13:29:56;2.33;;;0.60;;
21507;SDS011;10915;54.352;9.074;2023-10-08T13:32:21;2.30;;;0.80;;
21507;SDS011;10915;54.352;9.074;2023-10-08T13:34:48;1.87;;;0.77;;
21507;SDS011;10915;54.352;9.074;2023-10-08T13:37:14;3.17;;;1.03;;
21507;SDS011;10915;54.352;9.074;2023-10-08T13:39:40;1.77;;;0.50;;
21507;SDS011;10915;54.352;9.074;2023-10-08T13:42:06;2.63;;;1.07;;
21507;SDS011;10915;54.352;9.074;2023-10-08T13:44:32;1.90;;;0.70;;
21507;SDS011;10915;54.352;9.074;2023-10-08T13:46:58;1.53;;;0.83;;
21507;SDS011;10915;54.352;9.074;2023-10-08T13:49:25;1.47;;;0.80;;
21507;SDS011;10915;54.352;9.074;2023-10-08T13:51:51;0.80;;;0.70;;
21507;SDS011;10915;54.352;9.074;2023-10-08T13:54:24;1.47;;;0.77;;
21507;SDS011;10915;54.352;9.074;2023-10-08T13:57:00;1.20;;;0.63;;
21507;SDS011;10915;54.352;9.074;2023-10-08T13:59:26;2.10;;;0.80;;
21507;SDS011;10915;54.352;9.074;2023-10-08T14:01:56;2.27;;;0.90;;
21507;SDS011;10915;54.352;9.074;2023-10-08T14:04:21;0.70;;;0.60;;
21507;SDS011;10915;54.352;9.074;2023-10-08T14:06:55;1.43;;;0.93;;
21507;SDS011;10915;54.352;9.074;2023-10-08T14:09:23;1.73;;;0.63;;
21507;SDS011;10915;54.352;9.074;2023-10-08T14:12:01;2.40;;;0.80;;
21507;SDS011;10915;54.352;9.074;2023-10-08T14:14:27;1.60;;;0.60;;
21507;SDS011;10915;54.352;9.074;2023-10-08T14:16:58;2.07;;;1.23;;
21507;SDS011;10915;54.352;9.074;2023-10-08T14:19:36;2.80;;;0.80;;
21507;SDS011;10915;54.352;9.074;2023-10-08T14:22:11;2.83;;;0.70;;
21507;SDS011;10915;54.352;9.074;2023-10-08T14:24:39;2.83;;;0.80;;
21507;SDS011;10915;54.352;9.074;2023-10-08T14:27:05;0.93;;;0.53;;
21507;SDS011;10915;54.352;9.074;2023-10-08T14:29:40;0.73;;;0.43;;
21507;SDS011;10915;54.352;9.074;2023-10-08T14:32:08;1.67;;;0.67;;
21507;SDS011;10915;54.352;9.074;2023-10-08T14:34:35;1.83;;;0.70;;
21507;SDS011;10915;54.352;9.074;2023-10-08T14:37:08;0.77;;;0.53;;
21507;SDS011;10915;54.352;9.074;2023-10-08T14:39:53;1.23;;;0.57;;
21507;SDS011;10915;54.352;9.074;2023-10-08T14:42:37;1.20;;;0.90;;
21507;SDS011;10915;54.352;9.074;2023-10-08T14:45:20;1.00;;;0.70;;
21507;SDS011;10915;54.352;9.074;2023-10-08T14:47:56;2.17;;;0.87;;
21507;SDS011;10915;54.352;9.074;2023-10-08T14:50:23;1.30;;;0.70;;
21507;SDS011;10915;54.352;9.074;2023-10-08T14:52:52;1.53;;;0.70;;
21507;SDS011;10915;54.352;9.074;2023-10-08T14:55:22;1.53;;;0.73;;
21507;SDS011;10915;54.352;9.074;2023-10-08T14:57:48;1.07;;;0.67;;
21507;SDS011;10915;54.352;9.074;2023-10-08T15:00:17;1.67;;;0.90;;
21507;SDS011;10915;54.352;9.074;2023-10-08T15:02:49;1.27;;;0.80;;
21507;SDS011;10915;54.352;9.074;2023-10-08T15:05:23;0.67;;;0.60;;
21507;SDS011;10915;54.352;9.074;2023-10-08T15:07:49;0.80;;;0.40;;
21507;SDS011;10915;54.352;9.074;2023-10-08T15:12:55;2.13;;;0.93;;
21507;SDS011;10915;54.352;9.074;2023-10-08T15:15:31;1.23;;;0.67;;
21507;SDS011;10915;54.352;9.074;2023-10-08T15:17:59;0.87;;;0.60;;
21507;SDS011;10915;54.352;9.074;2023-10-08T15:20:31;0.60;;;0.40;;
21507;SDS011;10915;54.352;9.074;2023-10-08T15:23:06;0.80;;;0.80;;
21507;SDS011;10915;54.352;9.074;2023-10-08T15:25:32;2.53;;;0.67;;
21507;SDS011;10915;54.352;9.074;2023-10-08T15:27:58;3.23;;;1.30;;
21507;SDS011;10915;54.352;9.074;2023-10-08T15:30:31;2.60;;;1.03;;
21507;SDS011;10915;54.352;9.074;2023-10-08T15:32:57;2.10;;;0.73;;
21507;SDS011;10915;54.352;9.074;2023-10-08T15:35:23;1.90;;;0.90;;
21507;SDS011;10915;54.352;9.074;2023-10-08T15:37:50;1.53;;;0.80;;
21507;SDS011;10915;54.352;9.074;2023-10-08T15:40:17;1.63;;;0.80;;
21507;SDS011;10915;54.352;9.074;2023-10-08T15:42:54;1.03;;;0.80;;
21507;SDS011;10915;54.352;9.074;2023-10-08T15:45:22;1.60;;;0.80;;
21507;SDS011;10915;54.352;9.074;2023-10-08T15:47:49;1.93;;;1.00;;
21507;SDS011;10915;54.352;9.074;2023-10-08T15:50:16;2.50;;;0.90;;
21507;SDS011;10915;54.352;9.074;2023-10-08T15:52:45;2.90;;;1.00;;
21507;SDS011;10915;54.352;9.074;2023-10-08T15:55:15;2.90;;;1.13;;
21507;SDS011;10915;54.352;9.074;2023-10-08T15:57:47;2.97;;;0.90;;
21507;SDS011;10915;54.352;9.074;2023-10-08T16:00:14;2.20;;;0.90;;
21507;SDS011;10915;54.352;9.074;2023-10-08T16:02:40;4.13;;;0.97;;
21507;SDS011;10915;54.352;9.074;2023-10-08T16:05:08;3.03;;;1.10;;
21507;SDS011;10915;54.352;9.074;2023-10-08T16:07:34;1.73;;;1.00;;
21507;SDS011;10915;54.352;9.074;2023-10-08T16:10:04;2.03;;;0.93;;
21507;SDS011;10915;54.352;9.074;2023-10-08T16:12:30;5.50;;;1.40;;
21507;SDS011;10915;54.352;9.074;2023-10-08T16:14:57;4.50;;;1.30;;
21507;SDS011;10915;54.352;9.074;2023-10-08T16:17:26;4.23;;;1.10;;
21507;SDS011;10915;54.352;9.074;2023-10-08T16:19:57;4.37;;;1.47;;
21507;SDS011;10915;54.352;9.074;2023-10-08T16:22:24;4.43;;;0.87;;
21507;SDS011;10915;54.352;9.074;2023-10-08T16:24:53;4.03;;;1.20;;
21507;SDS011;10915;54.352;9.074;2023-10-08T16:27:20;2.67;;;1.40;;
21507;SDS011;10915;54.352;9.074;2023-10-08T16:29:47;7.63;;;1.53;;
21507;SDS011;10915;54.352;9.074;2023-10-08T16:32:13;2.73;;;1.10;;
21507;SDS011;10915;54.352;9.074;2023-10-08T16:34:41;2.40;;;1.00;;
21507;SDS011;10915;54.352;9.074;2023-10-08T16:37:08;2.90;;;1.37;;
21507;SDS011;10915;54.352;9.074;2023-10-08T16:39:36;1.67;;;0.90;;
21507;SDS011;10915;54.352;9.074;2023-10-08T16:42:02;3.73;;;1.37;;
21507;SDS011;10915;54.352;9.074;2023-10-08T16:44:29;5.40;;;1.10;;
21507;SDS011;10915;54.352;9.074;2023-10-08T16:46:55;1.73;;;1.00;;
21507;SDS011;10915;54.352;9.074;2023-10-08T16:49:23;4.10;;;1.57;;
21507;SDS011;10915;54.352;9.074;2023-10-08T16:51:56;2.87;;;1.50;;
21507;SDS011;10915;54.352;9.074;2023-10-08T16:54:26;3.30;;;1.70;;
21507;SDS011;10915;54.352;9.074;2023-10-08T16:56:54;5.77;;;1.73;;
21507;SDS011;10915;54.352;9.074;2023-10-08T16:59:36;2.80;;;1.60;;
21507;SDS011;10915;54.352;9.074;2023-10-08T17:02:35;3.73;;;1.80;;
21507;SDS011;10915;54.352;9.074;2023-10-08T17:05:25;3.83;;;1.70;;
21507;SDS011;10915;54.352;9.074;2023-10-08T17:08:22;3.97;;;1.77;;
21507;SDS011;10915;54.352;9.074;2023-10-08T17:10:48;4.17;;;1.50;;
21507;SDS011;10915;54.352;9.074;2023-10-08T17:13:19;2.93;;;1.50;;
21507;SDS011;10915;54.352;9.074;2023-10-08T17:15:45;2.40;;;1.57;;
21507;SDS011;10915;54.352;9.074;2023-10-08T17:18:11;2.27;;;1.53;;
21507;SDS011;10915;54.352;9.074;2023-10-08T17:20:41;1.77;;;1.37;;
21507;SDS011;10915;54.352;9.074;2023-10-08T17:23:11;2.00;;;1.40;;
21507;SDS011;10915;54.352;9.074;2023-10-08T17:25:39;2.57;;;1.43;;
21507;SDS011;10915;54.352;9.074;2023-10-08T17:28:06;2.30;;;1.40;;
21507;SDS011;10915;54.352;9.074;2023-10-08T17:30:32;4.27;;;1.23;;
21507;SDS011;10915;54.352;9.074;2023-10-08T17:32:59;2.13;;;1.53;;
21507;SDS011;10915;54.352;9.074;2023-10-08T17:35:31;4.33;;;1.67;;
21507;SDS011;10915;54.352;9.074;2023-10-08T17:38:18;2.50;;;1.70;;
21507;SDS011;10915;54.352;9.074;2023-10-08T17:41:07;2.37;;;1.70;;
21507;SDS011;10915;54.352;9.074;2023-10-08T17:43:49;3.97;;;1.80;;
21507;SDS011;10915;54.352;9.074;2023-10-08T17:46:23;2.83;;;1.90;;
21507;SDS011;10915;54.352;9.074;2023-10-08T17:48:55;2.57;;;2.00;;
21507;SDS011;10915;54.352;9.074;2023-10-08T17:51:30;3.80;;;2.00;;
21507;SDS011;10915;54.352;9.074;2023-10-08T17:54:10;4.37;;;2.10;;
21507;SDS011;10915;54.352;9.074;2023-10-08T17:56:37;4.10;;;2.27;;
21507;SDS011;10915;54.352;9.074;2023-10-08T17:59:36;4.93;;;2.10;;
21507;SDS011;10915;54.352;9.074;2023-10-08T18:02:55;8.37;;;2.27;;
21507;SDS011;10915;54.352;9.074;2023-10-08T18:05:58;3.40;;;1.70;;
21507;SDS011;10915;54.352;9.074;2023-10-08T18:08:59;2.30;;;1.90;;
21507;SDS011;10915;54.352;9.074;2023-10-08T18:12:05;6.90;;;2.00;;